sim
Sign-in with your pilot id or email,
or register
Callsign
Passwort

Schedule Details

Flight Number: DLH2382 (2)
Departure: Munich Airport (EDDM) at 06:00
Arrival: Geneva International Airport (LSGG) at 07:15
Route: Lufthansa Passenger Schedule. Enter filed route here before submitting Pirep.

Weather Information
Getting current METAR information for EDDM 220150Z 33002KT 3000 1100N R08L/0600N R08R/0800U BCFG NSC 08/08 Q1014 TEMPO 2500
Getting current METAR information for LSGG 220150Z AUTO VRB01KT 9999 FEW075 16/15 Q1015 NOSIG

Schedule Frequency

Route Map